createdAt,value
2018-07-03T00:00:13.152Z,58.00
2018-07-03T00:02:41.339Z,58.00
2018-07-03T00:05:09.557Z,58.00
2018-07-03T00:07:37.732Z,57.30
2018-07-03T00:10:05.994Z,57.10
2018-07-03T00:12:34.176Z,57.30
2018-07-03T00:15:02.387Z,57.40
2018-07-03T00:17:30.556Z,58.10
2018-07-03T00:19:58.725Z,58.60
2018-07-03T00:22:26.910Z,58.40
2018-07-03T00:24:55.085Z,57.80
2018-07-03T00:27:23.261Z,57.80
2018-07-03T00:29:51.423Z,57.50
2018-07-03T00:32:19.596Z,58.60
2018-07-03T00:34:47.858Z,59.50
2018-07-03T00:37:16.024Z,59.30
2018-07-03T00:42:12.121Z,59.50
2018-07-03T00:44:40.304Z,60.50
2018-07-03T00:47:08.498Z,61.00
2018-07-03T00:49:36.699Z,60.40
2018-07-03T00:52:04.886Z,60.00
2018-07-03T00:54:33.059Z,60.90
2018-07-03T00:57:01.282Z,60.50
2018-07-03T00:59:29.454Z,60.50
2018-07-03T01:01:57.628Z,60.10
2018-07-03T01:04:25.795Z,59.80
2018-07-03T01:06:53.980Z,60.20
2018-07-03T01:09:22.148Z,60.80
2018-07-03T01:11:50.342Z,60.50
2018-07-03T01:14:18.542Z,60.50
2018-07-03T01:16:46.707Z,62.20
2018-07-03T01:19:14.900Z,61.50
2018-07-03T01:21:43.897Z,61.70
2018-07-03T01:24:12.076Z,62.50
2018-07-03T01:26:40.242Z,63.10
2018-07-03T01:29:08.427Z,63.20
2018-07-03T01:31:36.585Z,64.10
2018-07-03T01:34:04.966Z,65.00
2018-07-03T01:36:33.141Z,64.80
2018-07-03T01:39:01.315Z,64.90
2018-07-03T01:41:29.627Z,64.50
2018-07-03T01:43:57.780Z,64.40
2018-07-03T01:46:25.948Z,64.70
2018-07-03T01:48:54.122Z,65.00
2018-07-03T01:51:22.299Z,66.20
2018-07-03T01:53:50.466Z,66.50
2018-07-03T01:56:18.649Z,66.40
2018-07-03T01:58:46.810Z,66.20
2018-07-03T02:01:15.026Z,66.80
2018-07-03T02:03:43.539Z,67.60
2018-07-03T02:06:11.726Z,67.40
2018-07-03T02:08:39.954Z,68.70
2018-07-03T02:11:08.192Z,68.40
2018-07-03T02:13:36.344Z,68.50
2018-07-03T02:16:06.536Z,68.70
2018-07-03T02:18:34.823Z,68.60
2018-07-03T02:21:03.052Z,69.20
2018-07-03T02:23:31.322Z,70.40
2018-07-03T02:25:59.675Z,70.10
2018-07-03T02:28:27.835Z,69.50
2018-07-03T02:30:56.001Z,69.00
2018-07-03T02:33:24.197Z,69.00
2018-07-03T02:35:52.361Z,68.90
2018-07-03T02:38:20.537Z,69.30
2018-07-03T02:40:48.736Z,69.90
2018-07-03T02:43:16.899Z,71.20
2018-07-03T02:45:45.049Z,70.10
2018-07-03T02:48:13.246Z,70.20
2018-07-03T02:50:41.410Z,69.90
2018-07-03T02:53:09.587Z,70.10
2018-07-03T02:55:37.775Z,69.80
2018-07-03T02:58:06.006Z,70.90
2018-07-03T03:00:34.588Z,72.00
2018-07-03T03:03:02.749Z,72.30
2018-07-03T03:05:30.941Z,72.20
2018-07-03T03:07:59.109Z,72.80
2018-07-03T03:10:27.297Z,73.50
2018-07-03T03:12:55.477Z,73.60
2018-07-03T03:15:23.629Z,74.10
2018-07-03T03:17:51.863Z,73.40
2018-07-03T03:20:20.016Z,73.80
2018-07-03T03:22:48.171Z,73.70
2018-07-03T03:25:16.371Z,74.10
2018-07-03T03:27:44.523Z,73.20
2018-07-03T03:30:12.693Z,72.80
2018-07-03T03:32:40.865Z,72.60
2018-07-03T03:35:09.099Z,72.70
2018-07-03T03:37:37.229Z,71.60
2018-07-03T03:40:05.403Z,71.10
2018-07-03T03:42:33.568Z,70.50
2018-07-03T03:45:01.762Z,70.30
2018-07-03T03:47:29.937Z,69.50
2018-07-03T03:49:58.224Z,71.50
2018-07-03T03:52:26.727Z,71.80
2018-07-03T03:54:55.283Z,70.70
2018-07-03T03:57:23.470Z,70.00
2018-07-03T03:59:51.655Z,70.00
2018-07-03T04:02:19.928Z,70.00
2018-07-03T04:04:48.107Z,70.70
2018-07-03T04:07:16.297Z,71.80
2018-07-03T04:09:44.514Z,72.40
2018-07-03T04:12:12.727Z,71.50
2018-07-03T04:14:40.906Z,71.50
2018-07-03T04:17:09.142Z,72.30
2018-07-03T04:19:37.336Z,72.30
2018-07-03T04:22:05.551Z,72.80
2018-07-03T04:24:33.734Z,72.70
2018-07-03T04:27:01.920Z,71.80
2018-07-03T04:29:30.121Z,72.40
2018-07-03T04:31:58.356Z,72.00
2018-07-03T04:34:26.548Z,71.60
2018-07-03T04:36:54.729Z,71.40
2018-07-03T04:39:22.970Z,71.10
2018-07-03T04:41:51.574Z,71.70
2018-07-03T04:44:19.753Z,70.90
2018-07-03T04:46:48.285Z,70.90
2018-07-03T04:49:16.450Z,70.50
2018-07-03T04:51:44.646Z,70.80
2018-07-03T04:54:12.850Z,71.00
2018-07-03T04:56:41.076Z,71.60
2018-07-03T04:59:09.265Z,69.50
2018-07-03T05:01:37.458Z,70.80
2018-07-03T05:04:05.634Z,71.90
2018-07-03T05:06:34.020Z,70.80
2018-07-03T05:09:02.227Z,71.60
2018-07-03T05:11:30.458Z,70.50
2018-07-03T05:13:58.952Z,69.50
2018-07-03T05:16:27.163Z,68.40
2018-07-03T05:18:55.369Z,70.40
2018-07-03T05:21:23.567Z,68.50
2018-07-03T05:23:51.750Z,68.70
2018-07-03T05:26:19.957Z,67.40
2018-07-03T05:28:48.158Z,68.80
2018-07-03T05:31:16.404Z,67.00
2018-07-03T05:33:44.681Z,65.50
2018-07-03T05:36:12.916Z,65.30
2018-07-03T05:38:41.081Z,66.80
2018-07-03T05:41:09.306Z,66.20
2018-07-03T05:43:37.493Z,65.60
2018-07-03T05:46:05.740Z,65.30
2018-07-03T05:51:01.879Z,65.50
2018-07-03T05:53:30.077Z,64.40
2018-07-03T05:55:58.245Z,65.20
2018-07-03T05:58:26.449Z,66.10
2018-07-03T06:00:54.625Z,66.20
2018-07-03T06:03:22.866Z,65.80
2018-07-03T06:05:51.070Z,65.80
2018-07-03T06:08:19.260Z,64.70
2018-07-03T06:13:15.395Z,62.90
2018-07-03T06:15:43.553Z,64.40
2018-07-03T06:18:11.742Z,65.80
2018-07-03T06:20:39.935Z,64.00
2018-07-03T06:23:08.139Z,64.10
2018-07-03T06:25:36.313Z,65.40
2018-07-03T06:28:04.501Z,62.90
2018-07-03T06:30:32.644Z,62.60
2018-07-03T06:33:00.901Z,62.90
2018-07-03T06:35:29.108Z,60.00
2018-07-03T06:37:57.291Z,60.20
2018-07-03T06:40:25.509Z,59.90
2018-07-03T06:42:53.709Z,60.50
2018-07-03T06:45:21.976Z,60.00
2018-07-03T06:47:50.180Z,58.90
2018-07-03T06:50:18.373Z,58.00
2018-07-03T06:52:46.603Z,59.10
2018-07-03T06:55:14.774Z,57.90
2018-07-03T06:57:43.013Z,57.60
2018-07-03T07:00:11.225Z,56.80
2018-07-03T07:02:39.400Z,56.30
2018-07-03T07:05:07.700Z,56.00
2018-07-03T07:07:35.901Z,56.60
2018-07-03T07:10:04.429Z,58.70
2018-07-03T07:12:32.668Z,56.30
2018-07-03T07:15:00.892Z,54.80
2018-07-03T07:17:29.013Z,54.00
2018-07-03T07:19:57.215Z,52.70
2018-07-03T07:22:25.378Z,53.10
2018-07-03T07:24:53.589Z,52.60
2018-07-03T07:27:21.781Z,51.50
2018-07-03T07:29:50.009Z,52.00
2018-07-03T07:32:18.214Z,50.70
2018-07-03T07:34:46.526Z,49.50
2018-07-03T07:37:14.710Z,49.50
2018-07-03T07:39:42.883Z,48.00
2018-07-03T07:42:11.167Z,48.70
2018-07-03T07:44:39.331Z,49.10
2018-07-03T07:47:07.517Z,46.10
2018-07-03T07:49:35.701Z,47.10
2018-07-03T07:52:03.872Z,44.20
2018-07-03T07:54:32.052Z,43.60
2018-07-03T07:57:00.260Z,38.80
2018-07-03T07:59:28.462Z,32.40
2018-07-03T08:01:56.640Z,27.50
2018-07-03T08:04:24.833Z,22.10
2018-07-03T08:24:09.010Z,16.80
2018-07-03T08:26:37.216Z,16.20
2018-07-03T08:29:05.408Z,16.30
2018-07-03T08:31:33.656Z,17.40
2018-07-03T08:34:01.867Z,16.20
2018-07-03T08:36:30.080Z,16.80
2018-07-03T08:41:26.696Z,16.10
2018-07-03T08:43:54.881Z,16.50
2018-07-03T08:46:23.093Z,16.70
2018-07-03T08:48:51.254Z,16.10
2018-07-03T08:51:19.458Z,15.20
2018-07-03T08:53:47.656Z,16.00
2018-07-03T08:56:16.696Z,15.90
2018-07-03T08:58:44.882Z,16.60
2018-07-03T09:01:13.084Z,16.40
2018-07-03T09:03:41.299Z,17.30
2018-07-03T09:06:09.809Z,16.80
2018-07-03T09:08:38.013Z,17.00
2018-07-03T09:11:06.914Z,15.30
2018-07-03T09:13:35.064Z,16.90
2018-07-03T09:16:03.288Z,16.40
2018-07-03T09:18:31.452Z,15.90
2018-07-03T09:20:59.656Z,17.40
2018-07-03T09:23:27.816Z,15.70
2018-07-03T09:25:56.013Z,18.10
2018-07-03T09:28:24.256Z,18.10
2018-07-03T09:30:52.461Z,17.60
2018-07-03T09:33:20.692Z,15.80
2018-07-03T09:35:54.659Z,15.00
2018-07-03T09:38:22.854Z,18.90
2018-07-03T09:40:51.025Z,16.00
2018-07-03T09:43:19.221Z,19.00
2018-07-03T09:45:47.400Z,18.90
2018-07-03T09:48:15.770Z,17.50
2018-07-03T09:50:43.975Z,15.20
2018-07-03T09:53:12.110Z,19.40
2018-07-03T09:55:40.486Z,16.70
2018-07-03T09:58:08.689Z,16.70
2018-07-03T10:00:42.304Z,16.90
2018-07-03T10:03:10.489Z,18.70
2018-07-03T10:05:38.655Z,16.90
2018-07-03T10:08:06.855Z,19.40
2018-07-03T10:10:35.052Z,19.40
2018-07-03T10:13:03.275Z,19.30
2018-07-03T10:15:31.413Z,18.90
2018-07-03T10:17:59.579Z,18.40
2018-07-03T10:20:27.755Z,18.10
2018-07-03T10:22:55.908Z,18.30
2018-07-03T10:25:24.122Z,17.70
2018-07-03T10:27:52.312Z,18.70
2018-07-03T10:30:20.450Z,19.00
2018-07-03T10:32:48.622Z,19.00
2018-07-03T10:35:16.828Z,19.30
2018-07-03T10:37:44.994Z,19.60
2018-07-03T10:40:13.173Z,18.40
2018-07-03T10:42:41.348Z,17.70
2018-07-03T10:45:09.518Z,16.70
2018-07-03T10:47:37.708Z,17.40
2018-07-03T10:50:12.363Z,17.20
2018-07-03T10:52:40.957Z,17.00
2018-07-03T10:55:09.348Z,19.00
2018-07-03T10:57:37.955Z,18.60
2018-07-03T11:00:07.505Z,18.20
2018-07-03T11:02:35.936Z,17.90
2018-07-03T11:05:04.450Z,18.90
2018-07-03T11:07:32.827Z,20.90
2018-07-03T11:10:01.212Z,18.60
2018-07-03T11:12:29.903Z,17.70
2018-07-03T11:14:58.409Z,18.90
2018-07-03T11:17:26.614Z,19.40
2018-07-03T11:19:54.945Z,21.40
2018-07-03T11:22:23.368Z,20.60
2018-07-03T11:25:09.722Z,20.00
2018-07-03T11:27:38.570Z,19.30
2018-07-03T11:30:07.514Z,20.90
2018-07-03T11:32:36.204Z,20.80
2018-07-03T11:35:05.030Z,20.40
2018-07-03T11:37:33.811Z,23.30
2018-07-03T11:40:02.308Z,20.80
2018-07-03T11:42:30.821Z,20.80
2018-07-03T11:44:59.802Z,22.10
2018-07-03T11:47:29.329Z,20.20
2018-07-03T11:53:00.862Z,19.50
2018-07-03T11:55:29.782Z,19.00
2018-07-03T11:57:58.121Z,20.40
2018-07-03T12:00:26.605Z,20.20
2018-07-03T12:02:56.513Z,20.60
2018-07-03T12:05:24.883Z,22.20
2018-07-03T12:07:53.213Z,20.70
2018-07-03T12:10:21.903Z,19.60
2018-07-03T12:12:50.286Z,20.40
2018-07-03T12:15:18.569Z,20.30
2018-07-03T12:17:47.013Z,21.30
2018-07-03T12:20:15.311Z,22.50
2018-07-03T12:22:43.694Z,21.90
2018-07-03T12:25:12.074Z,22.00
2018-07-03T12:27:47.173Z,22.60
2018-07-03T12:30:18.909Z,21.40
2018-07-03T12:32:47.819Z,22.10
2018-07-03T12:35:16.951Z,24.00
2018-07-03T12:37:46.734Z,25.70
2018-07-03T12:40:14.916Z,22.70
2018-07-03T12:42:45.646Z,26.20
2018-07-03T12:45:13.846Z,24.20
2018-07-03T12:47:42.259Z,22.00
2018-07-03T12:50:11.206Z,23.30
2018-07-03T12:52:39.400Z,21.50
2018-07-03T12:55:07.663Z,21.70
2018-07-03T12:57:35.838Z,23.10
2018-07-03T13:00:04.984Z,25.50
2018-07-03T13:02:33.481Z,27.00
2018-07-03T13:05:01.855Z,28.00
2018-07-03T13:07:30.023Z,28.80
2018-07-03T13:09:58.199Z,26.70
2018-07-03T13:12:26.433Z,28.70
2018-07-03T13:14:54.606Z,27.30
2018-07-03T13:17:23.752Z,29.40
2018-07-03T13:19:52.109Z,24.50
2018-07-03T13:22:23.157Z,21.80
2018-07-03T13:24:51.461Z,23.20
2018-07-03T13:27:19.954Z,23.00
2018-07-03T13:29:49.076Z,24.30
2018-07-03T13:32:17.257Z,22.10
2018-07-03T13:34:45.982Z,21.10
2018-07-03T13:37:18.431Z,21.90
2018-07-03T13:39:46.672Z,21.20
2018-07-03T13:42:16.985Z,20.50
2018-07-03T13:44:45.206Z,22.70
2018-07-03T13:47:13.468Z,20.30
2018-07-03T13:49:41.704Z,20.30
2018-07-03T13:52:09.904Z,20.50
2018-07-03T13:54:38.498Z,20.30
2018-07-03T13:57:06.877Z,20.50
2018-07-03T13:59:35.198Z,20.40
2018-07-03T14:02:03.490Z,21.80
2018-07-03T14:04:31.746Z,21.30
2018-07-03T14:07:00.641Z,21.40
2018-07-03T14:09:30.243Z,23.20
2018-07-03T14:11:58.599Z,22.10
2018-07-03T14:14:27.209Z,23.10
2018-07-03T14:16:55.599Z,21.50
2018-07-03T14:19:23.812Z,20.80
2018-07-03T14:21:52.141Z,20.40
2018-07-03T14:24:20.271Z,20.90
2018-07-03T14:26:48.464Z,21.00
2018-07-03T14:29:16.660Z,22.40
2018-07-03T14:31:49.924Z,21.80
2018-07-03T14:34:18.097Z,22.50
2018-07-03T14:36:46.309Z,20.80
2018-07-03T14:39:14.715Z,21.90
2018-07-03T14:41:43.449Z,20.30
2018-07-03T14:44:11.792Z,20.40
2018-07-03T14:46:39.976Z,22.80
2018-07-03T14:49:08.219Z,22.30
2018-07-03T14:51:36.451Z,21.60
2018-07-03T14:54:04.649Z,21.60
2018-07-03T14:56:32.864Z,21.80
2018-07-03T14:59:01.073Z,24.40
2018-07-03T15:01:29.342Z,22.40
2018-07-03T15:03:57.555Z,22.40
2018-07-03T15:06:25.709Z,22.00
2018-07-03T15:08:55.360Z,22.20
2018-07-03T15:11:23.605Z,20.60
2018-07-03T15:13:51.760Z,19.60
2018-07-03T15:18:53.351Z,20.40
2018-07-03T15:21:21.547Z,20.40
2018-07-03T15:23:49.729Z,20.00
2018-07-03T15:26:17.911Z,20.30
2018-07-03T15:28:46.082Z,19.50
2018-07-03T15:31:14.263Z,19.70
2018-07-03T15:33:42.497Z,19.30
2018-07-03T15:36:10.661Z,19.30
2018-07-03T15:38:38.828Z,18.50
2018-07-03T15:41:07.035Z,21.20
2018-07-03T15:43:35.204Z,20.50
2018-07-03T15:46:03.714Z,22.00
2018-07-03T15:48:31.992Z,21.80
2018-07-03T15:51:00.254Z,20.50
2018-07-03T15:53:28.412Z,23.20
2018-07-03T15:55:56.598Z,19.90
2018-07-03T15:58:24.766Z,20.50
2018-07-03T16:00:53.003Z,21.70
2018-07-03T16:05:38.697Z,21.60
2018-07-03T16:08:57.915Z,22.00
2018-07-03T16:11:26.124Z,22.20
2018-07-03T16:13:54.718Z,21.90
2018-07-03T16:16:22.981Z,22.00
2018-07-03T16:18:51.233Z,21.50
2018-07-03T16:21:20.060Z,21.70
2018-07-03T16:23:48.245Z,22.20
2018-07-03T16:26:16.467Z,20.70
2018-07-03T16:28:44.713Z,21.40
2018-07-03T16:31:12.935Z,21.80
2018-07-03T16:33:41.142Z,21.50
2018-07-03T16:36:09.359Z,21.20
2018-07-03T16:38:37.580Z,21.30
2018-07-03T16:41:05.767Z,21.90
2018-07-03T16:43:33.988Z,22.70
2018-07-03T16:46:02.177Z,23.60
2018-07-03T16:48:30.361Z,22.80
2018-07-03T16:50:58.586Z,23.70
2018-07-03T16:53:26.818Z,23.90
2018-07-03T16:55:55.015Z,23.00
2018-07-03T16:58:23.248Z,22.70
2018-07-03T17:00:51.473Z,22.00
2018-07-03T17:03:19.643Z,23.60
2018-07-03T17:05:47.887Z,22.40
2018-07-03T17:10:44.683Z,21.70
2018-07-03T17:13:12.864Z,22.30
2018-07-03T17:15:41.079Z,23.50
2018-07-03T17:18:09.295Z,23.70
2018-07-03T17:20:37.534Z,22.60
2018-07-03T17:23:05.667Z,23.40
2018-07-03T17:25:34.348Z,28.20
2018-07-03T17:30:30.532Z,30.00
2018-07-03T17:32:58.709Z,30.60
2018-07-03T17:35:26.911Z,30.80
2018-07-03T17:37:55.108Z,33.00
2018-07-03T17:40:36.720Z,32.10
2018-07-03T17:43:18.031Z,33.90
2018-07-03T17:46:00.757Z,30.30
2018-07-03T17:48:29.150Z,32.20
2018-07-03T17:50:57.321Z,31.30
2018-07-03T17:53:25.584Z,32.20
2018-07-03T17:55:53.972Z,34.00
2018-07-03T17:58:22.197Z,30.80
2018-07-03T18:00:50.420Z,29.30
2018-07-03T18:03:18.716Z,28.80
2018-07-03T18:05:46.884Z,31.90
2018-07-03T18:08:15.098Z,31.90
2018-07-03T18:10:43.262Z,29.10
2018-07-03T18:13:11.469Z,28.60
2018-07-03T18:15:39.761Z,28.80
2018-07-03T18:18:07.952Z,28.70
2018-07-03T18:20:36.120Z,27.80
2018-07-03T18:23:04.341Z,31.40
2018-07-03T18:25:32.559Z,29.90
2018-07-03T18:28:00.749Z,32.40
2018-07-03T18:30:28.900Z,30.30
2018-07-03T18:32:58.872Z,35.40
2018-07-03T18:35:27.036Z,33.40
2018-07-03T18:37:55.245Z,29.20
2018-07-03T18:40:23.437Z,31.10
2018-07-03T18:42:51.631Z,30.70
2018-07-03T18:45:19.833Z,32.50
2018-07-03T18:47:48.060Z,32.50
2018-07-03T18:50:16.255Z,30.30
2018-07-03T18:52:44.690Z,29.80
2018-07-03T18:55:12.889Z,31.40
2018-07-03T18:57:41.078Z,33.40
2018-07-03T19:00:09.335Z,33.80
2018-07-03T19:05:05.570Z,31.70
2018-07-03T19:07:33.842Z,32.60
2018-07-03T19:10:02.031Z,33.10
2018-07-03T19:12:30.388Z,35.10
2018-07-03T19:14:58.679Z,33.60
2018-07-03T19:17:26.853Z,33.10
2018-07-03T19:19:55.111Z,37.00
2018-07-03T19:22:24.319Z,33.80
2018-07-03T19:24:52.581Z,31.20
2018-07-03T19:27:20.793Z,31.20
2018-07-03T19:29:49.169Z,32.90
2018-07-03T19:32:17.380Z,33.40
2018-07-03T19:34:45.593Z,34.80
2018-07-03T19:37:13.970Z,36.30
2018-07-03T19:42:11.105Z,38.00
2018-07-03T19:44:40.248Z,36.30
2018-07-03T19:47:08.416Z,38.50
2018-07-03T19:49:36.581Z,37.50
2018-07-03T19:52:04.811Z,37.60
2018-07-03T19:54:33.009Z,37.20
2018-07-03T19:57:01.186Z,39.30
2018-07-03T19:59:29.408Z,39.70
2018-07-03T20:01:57.621Z,38.50
2018-07-03T20:04:25.808Z,41.60
2018-07-03T20:06:54.205Z,41.30
2018-07-03T20:09:22.398Z,40.00
2018-07-03T20:11:50.544Z,40.40
2018-07-03T20:14:18.740Z,42.50
2018-07-03T20:16:46.925Z,40.90
2018-07-03T20:19:16.191Z,40.60
2018-07-03T20:21:45.976Z,40.20
2018-07-03T20:24:15.081Z,43.40
2018-07-03T20:26:43.292Z,45.20
2018-07-03T20:29:12.262Z,45.00
2018-07-03T20:31:40.481Z,45.60
2018-07-03T20:34:08.689Z,45.20
2018-07-03T20:36:36.970Z,45.90
2018-07-03T20:39:07.719Z,45.20
2018-07-03T20:41:36.033Z,44.20
2018-07-03T20:44:04.283Z,44.00
2018-07-03T20:46:32.493Z,44.90
2018-07-03T20:49:00.675Z,46.10
2018-07-03T20:51:28.889Z,46.70
2018-07-03T20:53:57.092Z,46.20
2018-07-03T20:56:25.296Z,47.00
2018-07-03T20:58:53.754Z,46.40
2018-07-03T21:01:21.962Z,46.90
2018-07-03T21:03:50.236Z,48.70
2018-07-03T21:06:18.449Z,48.10
2018-07-03T21:08:46.600Z,48.80
2018-07-03T21:11:14.813Z,47.80
2018-07-03T21:13:43.012Z,50.30
2018-07-03T21:16:11.348Z,49.00
2018-07-03T21:21:07.539Z,48.20
2018-07-03T21:23:35.721Z,49.30
2018-07-03T21:26:03.999Z,49.60
2018-07-03T21:28:32.188Z,49.60
2018-07-03T21:31:00.378Z,49.70
2018-07-03T21:33:28.545Z,49.70
2018-07-03T21:35:56.748Z,51.10
2018-07-03T21:38:24.925Z,51.20
2018-07-03T21:40:53.124Z,51.70
2018-07-03T21:43:21.311Z,51.40
2018-07-03T21:45:49.543Z,50.50
2018-07-03T21:48:17.743Z,50.30
2018-07-03T21:50:45.912Z,50.70
2018-07-03T21:53:14.216Z,49.80
2018-07-03T21:55:42.469Z,51.10
2018-07-03T21:58:10.657Z,51.90
2018-07-03T22:00:40.117Z,51.40
2018-07-03T22:03:09.420Z,52.10
2018-07-03T22:05:38.314Z,52.20
2018-07-03T22:08:06.559Z,51.50
2018-07-03T22:10:34.748Z,51.80
2018-07-03T22:13:03.340Z,52.00
2018-07-03T22:15:31.722Z,52.40
2018-07-03T22:17:59.906Z,52.70
2018-07-03T22:20:28.259Z,53.20
2018-07-03T22:22:56.433Z,53.20
2018-07-03T22:25:24.624Z,54.10
2018-07-03T22:27:52.804Z,54.60
2018-07-03T22:30:21.004Z,55.00
2018-07-03T22:32:49.401Z,55.20
2018-07-03T22:35:17.659Z,55.20
2018-07-03T22:37:45.820Z,55.20
2018-07-03T22:40:14.010Z,56.30
2018-07-03T22:42:42.213Z,57.40
2018-07-03T22:45:10.418Z,56.90
2018-07-03T22:47:38.664Z,57.50
2018-07-03T22:50:06.853Z,57.50
2018-07-03T22:55:03.028Z,58.00
2018-07-03T22:57:31.721Z,58.00
2018-07-03T22:59:59.912Z,58.50
2018-07-03T23:02:28.132Z,58.90
2018-07-03T23:04:56.644Z,59.20
2018-07-03T23:07:24.844Z,59.60
2018-07-03T23:09:53.080Z,59.80
2018-07-03T23:12:21.283Z,59.60
2018-07-03T23:14:51.231Z,61.30
2018-07-03T23:17:19.468Z,62.10
2018-07-03T23:19:48.348Z,61.30
2018-07-03T23:22:16.568Z,62.30
2018-07-03T23:24:44.877Z,62.70
2018-07-03T23:27:14.042Z,62.80
2018-07-03T23:29:42.261Z,62.20
2018-07-03T23:32:10.913Z,61.50
2018-07-03T23:34:39.390Z,63.40
2018-07-03T23:37:07.576Z,63.50
2018-07-03T23:39:35.793Z,63.50
2018-07-03T23:42:03.984Z,63.10
2018-07-03T23:44:32.344Z,63.40
2018-07-03T23:47:11.788Z,63.80
2018-07-03T23:49:51.283Z,65.80
2018-07-03T23:52:30.849Z,64.80
2018-07-03T23:55:10.512Z,64.00
2018-07-03T23:57:50.217Z,64.60
